Clearlake, WA (98235)

4:18 PM PDT on March 26, 2015 (GMT -0700)
Highlands | | Change Station
CLOSE
Current Station
Personal Weather Station
Location: Mount Vernon, WA
Elevation: 499 ft
Nearby Weather Stations

Elev 499 ft 48.41 °N, 122.28 °W | Updated 3 minutes ago

Partly Cloudy
Partly Cloudy
62.8 °F
Feels Like 62.8 °F
N
3.7
Wind Variable Wind from NNW

Today
High -- | Low -- °F
--% Chance of Precip.
Yesterday
High -- | Low -- °F
Precip. -- in
6:59 AM 7:30 PM
Waxing Crescent, 46% visible
Pressure 30.22 in
Visibility 10.0 miles
Clouds Few 2500 ft
Scattered Clouds 4500 ft
Scattered Clouds 13000 ft
Mostly Cloudy 17000 ft
Mostly Cloudy 25000 ft
Dew Point 55 °F
Humidity 76%
Rainfall 0.00 in
Snow Depth Not available.
UV 2 out of 12
Pollen 8.00 out of 12
Air Quality Not available.
Flu Activity Not available.
METAR KNUW 262256Z 27006KT 10SM FEW025 SCT045 SCT130 BKN170 BKN250 13/10 A3021 RMK AO2 SLP234 T01330100 VISNO E $

More Conditions Fewer Conditions

Pressure 30.22 in
Visibility 10.0 miles
Clouds Few 2500 ft
Scattered Clouds 4500 ft
Scattered Clouds 13000 ft
Mostly Cloudy 17000 ft
Mostly Cloudy 25000 ft
Dew Point 55 °F
Humidity 76%
Rainfall 0.00 in
Snow Depth Not available.
UV 2 out of 12
Pollen 8.00 out of 12
Air Quality Not available.
Flu Activity Not available.
METAR KNUW 262256Z 27006KT 10SM FEW025 SCT045 SCT130 BKN170 BKN250 13/10 A3021 RMK AO2 SLP234 T01330100 VISNO E $

More Conditions Fewer Conditions

10-Day Weather Forecast

Almanac

Astronomy

Mar. 26, 2015 Rise Set
Actual Time
Civil Twilight
Nautical Twilight
Astronomical Twilight
Moon
Length of Visible Light
Length of Day
Tomorrow will be .
, % of the Moon is Illuminated

Today's Extremes

State Highs State Lows

Community

WunderPhotos

Upload Photos

1,808,633 photos uploaded!

WunderBlogs® & News

Nearby

Air Quality

  Air Quality AQ Index Pollutant
Not available.

Snow Depth

Station Depth Elevation

Earthquake Activity

City Distance Mag. Time & Date
Minimum magnitude displayed is 2.5.

Coastal Water Temperatures

Place Temperature

Stations

Nearby Weather Stations

Station Location Temp. Windchill Dew Point Humidity Wind Precip. Elev Updated Type